createdAt,value
2023-02-13T00:01:30.521Z,-6.46
2023-02-13T00:04:00.602Z,-6.47
2023-02-13T00:06:29.753Z,-6.51
2023-02-13T00:08:58.399Z,-6.54
2023-02-13T00:11:30.126Z,-6.56
2023-02-13T00:13:59.183Z,-6.58
2023-02-13T00:16:28.287Z,-6.62
2023-02-13T00:19:03.606Z,-6.63
2023-02-13T00:21:36.460Z,-6.65
2023-02-13T00:24:06.424Z,-6.69
2023-02-13T00:26:35.169Z,-6.72
2023-02-13T00:29:04.378Z,-6.75
2023-02-13T00:31:33.547Z,-6.76
2023-02-13T00:34:02.182Z,-6.77
2023-02-13T00:36:30.957Z,-6.78
2023-02-13T00:38:59.425Z,-6.78
2023-02-13T00:41:28.042Z,-6.77
2023-02-13T00:43:56.684Z,-6.77
2023-02-13T00:46:25.243Z,-6.77
2023-02-13T00:48:54.664Z,-6.80
2023-02-13T00:51:23.620Z,-6.82
2023-02-13T00:53:52.993Z,-6.82
2023-02-13T00:56:21.432Z,-6.82
2023-02-13T00:58:50.174Z,-6.83
2023-02-13T01:01:18.877Z,-6.85
2023-02-13T01:03:47.561Z,-6.85
2023-02-13T01:06:16.526Z,-6.84
2023-02-13T01:08:45.273Z,-6.84
2023-02-13T01:11:13.971Z,-6.85
2023-02-13T01:13:43.123Z,-6.87
2023-02-13T01:16:18.198Z,-6.89
2023-02-13T01:18:47.111Z,-6.91
2023-02-13T01:21:17.790Z,-6.93
2023-02-13T01:23:49.088Z,-6.95
2023-02-13T01:26:24.376Z,-6.99
2023-02-13T01:28:55.027Z,-7.03
2023-02-13T01:31:26.917Z,-7.07
2023-02-13T01:33:58.961Z,-7.07
2023-02-13T01:36:27.729Z,-7.08
2023-02-13T01:38:58.162Z,-7.11
2023-02-13T01:41:27.669Z,-7.14
2023-02-13T01:44:00.310Z,-7.16
2023-02-13T01:46:43.231Z,-7.17
2023-02-13T01:49:19.914Z,-7.18
2023-02-13T01:51:51.227Z,-7.18
2023-02-13T01:54:31.585Z,-7.19
2023-02-13T01:57:16.581Z,-7.19
2023-02-13T01:59:48.831Z,-7.20
2023-02-13T02:02:17.527Z,-7.23
2023-02-13T02:04:46.821Z,-7.26
2023-02-13T02:07:25.099Z,-7.26
2023-02-13T02:09:59.054Z,-7.26
2023-02-13T02:12:38.586Z,-7.26
2023-02-13T02:15:08.697Z,-7.26
2023-02-13T02:17:39.785Z,-7.27
2023-02-13T02:20:30.341Z,-7.30
2023-02-13T02:23:26.833Z,-7.31
2023-02-13T02:26:25.522Z,-7.33
2023-02-13T02:29:24.356Z,-7.31
2023-02-13T02:32:22.773Z,-7.30
2023-02-13T02:35:13.132Z,-7.30
2023-02-13T02:37:57.949Z,-7.31
2023-02-13T02:41:04.924Z,-7.31
2023-02-13T02:43:59.169Z,-7.32
2023-02-13T02:46:33.517Z,-7.31
2023-02-13T02:49:26.100Z,-7.30
2023-02-13T02:51:55.138Z,-7.32
2023-02-13T02:54:47.185Z,-7.34
2023-02-13T02:57:18.480Z,-7.37
2023-02-13T03:00:07.351Z,-7.40
2023-02-13T03:02:55.576Z,-7.42
2023-02-13T03:05:59.307Z,-7.46
2023-02-13T03:08:48.009Z,-7.51
2023-02-13T03:11:35.262Z,-7.56
2023-02-13T03:14:04.206Z,-7.62
2023-02-13T03:16:52.314Z,-7.66
2023-02-13T03:19:53.546Z,-7.68
2023-02-13T03:22:25.424Z,-7.70
2023-02-13T03:25:05.082Z,-7.71
2023-02-13T03:28:27.698Z,-7.71
2023-02-13T03:31:09.174Z,-7.72
2023-02-13T03:33:43.954Z,-7.73
2023-02-13T03:36:52.445Z,-7.75
2023-02-13T03:39:50.057Z,-7.76
2023-02-13T03:42:24.478Z,-7.78
2023-02-13T03:45:22.524Z,-7.80
2023-02-13T03:47:53.320Z,-7.80
2023-02-13T03:50:21.746Z,-7.79
2023-02-13T03:53:04.318Z,-7.79
2023-02-13T03:55:56.776Z,-7.80
2023-02-13T03:58:53.029Z,-7.82
2023-02-13T04:01:23.133Z,-7.84
2023-02-13T04:03:51.544Z,-7.84
2023-02-13T04:06:22.169Z,-7.83
2023-02-13T04:08:50.578Z,-7.81
2023-02-13T04:11:31.094Z,-7.80
2023-02-13T04:14:11.271Z,-7.80
2023-02-13T04:16:44.445Z,-7.79
2023-02-13T04:19:13.208Z,-7.78
2023-02-13T04:21:41.955Z,-7.79
2023-02-13T04:24:11.630Z,-7.78
2023-02-13T04:26:41.355Z,-7.78
2023-02-13T04:29:10.242Z,-7.78
2023-02-13T04:31:40.779Z,-7.79
2023-02-13T04:34:09.623Z,-7.78
2023-02-13T04:36:38.134Z,-7.78
2023-02-13T04:39:06.659Z,-7.77
2023-02-13T04:41:35.138Z,-7.76
2023-02-13T04:44:03.818Z,-7.74
2023-02-13T04:46:32.527Z,-7.72
2023-02-13T04:49:01.753Z,-7.71
2023-02-13T04:51:30.411Z,-7.69
2023-02-13T04:53:58.858Z,-7.67
2023-02-13T04:56:27.314Z,-7.65
2023-02-13T04:58:56.590Z,-7.62
2023-02-13T05:01:25.019Z,-7.59
2023-02-13T05:03:53.803Z,-7.57
2023-02-13T05:06:22.516Z,-7.55
2023-02-13T05:08:50.959Z,-7.54
2023-02-13T05:11:19.420Z,-7.53
2023-02-13T05:13:51.483Z,-7.50
2023-02-13T05:16:20.135Z,-7.47
2023-02-13T05:18:48.957Z,-7.44
2023-02-13T05:21:35.856Z,-7.40
2023-02-13T05:24:06.269Z,-7.35
2023-02-13T05:26:34.736Z,-7.31
2023-02-13T05:29:18.983Z,-7.28
2023-02-13T05:31:48.837Z,-7.24
2023-02-13T05:34:17.591Z,-7.20
2023-02-13T05:36:46.201Z,-7.16
2023-02-13T05:39:15.649Z,-7.12
2023-02-13T05:41:44.814Z,-7.07
2023-02-13T05:44:13.916Z,-7.02
2023-02-13T05:46:43.024Z,-6.98
2023-02-13T05:49:13.110Z,-6.93
2023-02-13T05:51:43.042Z,-6.88
2023-02-13T05:54:11.635Z,-6.82
2023-02-13T05:56:40.265Z,-6.77
2023-02-13T05:59:08.829Z,-6.72
2023-02-13T06:01:38.826Z,-6.67
2023-02-13T06:04:07.282Z,-6.61
2023-02-13T06:06:36.133Z,-6.55
2023-02-13T06:09:04.812Z,-6.48
2023-02-13T06:11:33.307Z,-6.42
2023-02-13T06:14:02.038Z,-6.36
2023-02-13T06:16:32.000Z,-6.26
2023-02-13T06:19:01.223Z,-6.16
2023-02-13T06:21:30.182Z,-6.08
2023-02-13T06:23:58.968Z,-6.01
2023-02-13T06:26:28.210Z,-5.95
2023-02-13T06:28:57.282Z,-5.83
2023-02-13T06:31:30.956Z,-5.71
2023-02-13T06:34:00.871Z,-5.56
2023-02-13T06:36:30.440Z,-5.44
2023-02-13T06:38:59.412Z,-5.33
2023-02-13T06:41:28.538Z,-5.23
2023-02-13T06:44:00.591Z,-5.15
2023-02-13T06:46:29.431Z,-5.09
2023-02-13T06:48:58.215Z,-5.05
2023-02-13T06:51:26.635Z,-4.98
2023-02-13T06:53:55.075Z,-4.90
2023-02-13T06:56:24.112Z,-4.82
2023-02-13T06:58:53.438Z,-4.72
2023-02-13T07:01:22.487Z,-4.63
2023-02-13T07:03:51.075Z,-4.55
2023-02-13T07:06:20.487Z,-4.52
2023-02-13T07:08:51.725Z,-4.49
2023-02-13T07:11:23.307Z,-4.45
2023-02-13T07:13:52.684Z,-4.43
2023-02-13T07:16:26.687Z,-4.40
2023-02-13T07:18:56.002Z,-4.30
2023-02-13T07:21:24.750Z,-4.16
2023-02-13T07:23:53.265Z,-4.00
2023-02-13T07:26:21.777Z,-3.87
2023-02-13T07:28:59.456Z,-3.79
2023-02-13T07:31:35.508Z,-3.66
2023-02-13T07:34:05.491Z,-3.59
2023-02-13T07:36:34.738Z,-3.53
2023-02-13T07:39:03.955Z,-3.42
2023-02-13T07:41:32.535Z,-3.21
2023-02-13T07:44:00.996Z,-2.98
2023-02-13T07:46:30.081Z,-2.85
2023-02-13T07:48:59.411Z,-2.75
2023-02-13T07:51:29.283Z,-2.62
2023-02-13T07:53:57.828Z,-2.51
2023-02-13T07:56:26.314Z,-2.40
2023-02-13T07:58:55.539Z,-2.36
2023-02-13T08:01:24.432Z,-2.35
2023-02-13T08:03:53.037Z,-2.37
2023-02-13T08:06:22.006Z,-2.47
2023-02-13T08:09:10.475Z,-2.59
2023-02-13T08:11:55.549Z,-2.68
2023-02-13T08:14:43.995Z,-2.66
2023-02-13T08:17:12.725Z,-2.60
2023-02-13T08:19:41.505Z,-2.57
2023-02-13T08:22:14.013Z,-2.52
2023-02-13T08:24:45.938Z,-2.47
2023-02-13T08:27:15.629Z,-2.45
2023-02-13T08:29:44.178Z,-2.40
2023-02-13T08:32:13.049Z,-2.23
2023-02-13T08:34:42.933Z,-1.95
2023-02-13T08:37:11.616Z,-1.68
2023-02-13T08:39:40.779Z,-1.45
2023-02-13T08:42:10.065Z,-1.32
2023-02-13T08:44:42.850Z,-1.32
2023-02-13T08:47:11.393Z,-1.24
2023-02-13T08:49:40.293Z,-1.16
2023-02-13T08:52:10.143Z,-1.24
2023-02-13T08:54:38.923Z,-1.38
2023-02-13T08:57:08.931Z,-1.61
2023-02-13T08:59:37.540Z,-1.71
2023-02-13T09:02:05.973Z,-1.65
2023-02-13T09:04:34.914Z,-1.52
2023-02-13T09:07:03.378Z,-1.44
2023-02-13T09:09:33.550Z,-1.43
2023-02-13T09:12:02.390Z,-1.34
2023-02-13T09:14:31.386Z,-1.28
2023-02-13T09:17:00.042Z,-1.11
2023-02-13T09:19:28.556Z,-0.90
2023-02-13T09:21:57.731Z,-0.74
2023-02-13T09:24:26.751Z,-0.56
2023-02-13T09:26:56.860Z,-0.43
2023-02-13T09:29:25.658Z,-0.32
2023-02-13T09:31:55.639Z,-0.26
2023-02-13T09:34:24.644Z,-0.30
2023-02-13T09:36:54.224Z,-0.24
2023-02-13T09:39:22.946Z,-0.16
2023-02-13T09:41:52.398Z,-0.09
2023-02-13T09:44:35.971Z,-0.14
2023-02-13T09:47:31.068Z,-0.33
2023-02-13T09:50:03.729Z,-0.53
2023-02-13T09:52:33.862Z,-0.65
2023-02-13T09:55:02.956Z,-0.75
2023-02-13T09:57:35.900Z,-0.84
2023-02-13T10:00:13.565Z,-0.72
2023-02-13T10:02:51.940Z,-0.72
2023-02-13T10:05:30.064Z,-0.69
2023-02-13T10:08:08.842Z,-0.62
2023-02-13T10:10:57.166Z,-0.59
2023-02-13T10:13:47.982Z,-0.54
2023-02-13T10:16:21.525Z,-0.44
2023-02-13T10:19:26.032Z,-0.36
2023-02-13T10:21:59.689Z,-0.20
2023-02-13T10:24:29.071Z,-0.11
2023-02-13T10:26:58.487Z,0.03
2023-02-13T10:30:02.105Z,0.13
2023-02-13T10:32:36.321Z,0.18
2023-02-13T10:35:05.400Z,0.06
2023-02-13T10:37:33.890Z,0.01
2023-02-13T10:40:02.660Z,-0.09
2023-02-13T10:42:36.487Z,-0.16
2023-02-13T10:45:09.567Z,-0.20
2023-02-13T10:47:47.811Z,-0.19
2023-02-13T10:50:41.317Z,-0.20
2023-02-13T10:53:24.748Z,-0.29
2023-02-13T10:55:59.744Z,-0.43
2023-02-13T10:58:53.807Z,-0.57
2023-02-13T11:01:33.032Z,-0.57
2023-02-13T11:04:08.005Z,-0.45
2023-02-13T11:06:40.802Z,-0.40
2023-02-13T11:09:09.683Z,-0.37
2023-02-13T11:11:39.494Z,-0.40
2023-02-13T11:14:17.543Z,-0.49
2023-02-13T11:17:01.927Z,-0.52
2023-02-13T11:19:35.310Z,-0.67
2023-02-13T11:22:09.472Z,-0.76
2023-02-13T11:25:04.323Z,-0.79
2023-02-13T11:27:35.641Z,-0.73
2023-02-13T11:30:28.459Z,-0.62
2023-02-13T11:33:26.619Z,-0.54
2023-02-13T11:36:22.283Z,-0.52
2023-02-13T11:39:07.799Z,-0.50
2023-02-13T11:41:41.102Z,-0.45
2023-02-13T11:44:26.635Z,-0.46
2023-02-13T11:46:59.245Z,-0.43
2023-02-13T11:49:32.933Z,-0.32
2023-02-13T11:52:02.990Z,-0.28
2023-02-13T11:54:44.322Z,-0.32
2023-02-13T11:57:20.544Z,-0.29
2023-02-13T11:59:53.207Z,-0.38
2023-02-13T12:02:29.696Z,-0.38
2023-02-13T12:05:19.198Z,-0.32
2023-02-13T12:07:48.863Z,-0.29
2023-02-13T12:10:25.722Z,-0.29
2023-02-13T12:12:56.461Z,-0.24
2023-02-13T12:15:30.536Z,-0.22
2023-02-13T12:18:21.623Z,-0.16
2023-02-13T12:21:00.380Z,-0.08
2023-02-13T12:23:57.685Z,-0.06
2023-02-13T12:26:36.818Z,-0.00
2023-02-13T12:29:24.846Z,-0.01
2023-02-13T12:32:22.548Z,-0.04
2023-02-13T12:35:09.353Z,-0.14
2023-02-13T12:37:58.749Z,-0.18
2023-02-13T12:41:08.356Z,-0.21
2023-02-13T12:44:00.741Z,-0.22
2023-02-13T12:46:55.553Z,-0.17
2023-02-13T12:49:46.987Z,-0.13
2023-02-13T12:52:22.603Z,-0.10
2023-02-13T12:54:57.488Z,-0.07
2023-02-13T12:57:47.291Z,-0.05
2023-02-13T13:00:18.788Z,0.01
2023-02-13T13:03:18.413Z,0.08
2023-02-13T13:06:12.569Z,0.14
2023-02-13T13:09:05.794Z,0.19
2023-02-13T13:11:50.654Z,0.21
2023-02-13T13:14:54.459Z,0.20
2023-02-13T13:17:49.859Z,0.18
2023-02-13T13:20:45.985Z,0.52
2023-02-13T13:23:22.975Z,1.10
2023-02-13T13:26:25.457Z,1.51
2023-02-13T13:28:56.087Z,1.81
2023-02-13T13:31:28.033Z,1.82
2023-02-13T13:34:04.177Z,1.91
2023-02-13T13:36:57.139Z,2.21
2023-02-13T13:39:29.305Z,2.12
2023-02-13T13:42:24.750Z,1.81
2023-02-13T13:45:11.775Z,1.57
2023-02-13T13:47:58.222Z,1.32
2023-02-13T13:50:31.120Z,1.07
2023-02-13T13:53:15.110Z,0.87
2023-02-13T13:55:58.644Z,0.66
2023-02-13T13:58:49.739Z,0.47
2023-02-13T14:01:27.557Z,0.31
2023-02-13T14:04:06.394Z,0.23
2023-02-13T14:06:44.833Z,0.20
2023-02-13T14:09:40.558Z,0.15
2023-02-13T14:12:24.720Z,0.13
2023-02-13T14:14:53.974Z,0.09
2023-02-13T14:17:44.448Z,0.08
2023-02-13T14:20:44.435Z,0.04
2023-02-13T14:23:25.255Z,-0.04
2023-02-13T14:26:22.020Z,-0.09
2023-02-13T14:28:50.488Z,-0.10
2023-02-13T14:31:43.296Z,-0.14
2023-02-13T14:34:12.325Z,-0.19
2023-02-13T14:36:43.460Z,-0.25
2023-02-13T14:39:24.305Z,-0.31
2023-02-13T14:41:55.560Z,-0.36
2023-02-13T14:44:47.008Z,-0.40
2023-02-13T14:47:29.448Z,-0.42
2023-02-13T14:49:58.620Z,-0.44
2023-02-13T14:52:43.289Z,-0.46
2023-02-13T14:55:36.853Z,-0.47
2023-02-13T14:58:20.260Z,-0.47
2023-02-13T15:01:37.018Z,-0.46
2023-02-13T15:04:11.326Z,-0.44
2023-02-13T15:06:42.720Z,-0.44
2023-02-13T15:09:28.337Z,-0.44
2023-02-13T15:11:57.064Z,-0.44
2023-02-13T15:14:26.347Z,-0.44
2023-02-13T15:16:58.659Z,-0.44
2023-02-13T15:19:28.598Z,-0.45
2023-02-13T15:21:59.231Z,-0.45
2023-02-13T15:24:43.778Z,-0.45
2023-02-13T15:27:17.336Z,-0.45
2023-02-13T15:30:02.276Z,-0.47
2023-02-13T15:32:37.178Z,-0.48
2023-02-13T15:35:28.119Z,-0.48
2023-02-13T15:37:56.835Z,-0.49
2023-02-13T15:40:33.589Z,-0.49
2023-02-13T15:43:02.902Z,-0.47
2023-02-13T15:45:34.146Z,-0.43
2023-02-13T15:48:03.531Z,-0.39
2023-02-13T15:50:34.690Z,-0.38
2023-02-13T15:53:04.859Z,-0.39
2023-02-13T15:55:34.192Z,-0.41
2023-02-13T15:58:02.696Z,-0.43
2023-02-13T16:00:34.040Z,-0.46
2023-02-13T16:03:04.154Z,-0.48
2023-02-13T16:05:40.425Z,-0.49
2023-02-13T16:08:29.974Z,-0.51
2023-02-13T16:11:17.121Z,-0.54
2023-02-13T16:14:10.911Z,-0.58
2023-02-13T16:16:44.866Z,-0.61
2023-02-13T16:19:24.452Z,-0.67
2023-02-13T16:21:53.125Z,-0.71
2023-02-13T16:24:21.977Z,-0.75
2023-02-13T16:26:51.047Z,-0.79
2023-02-13T16:29:26.061Z,-0.82
2023-02-13T16:32:05.088Z,-0.84
2023-02-13T16:34:33.505Z,-0.86
2023-02-13T16:37:02.191Z,-0.87
2023-02-13T16:39:33.197Z,-0.87
2023-02-13T16:42:01.792Z,-0.86
2023-02-13T16:44:31.821Z,-0.88
2023-02-13T16:47:04.554Z,-0.89
2023-02-13T16:49:37.089Z,-0.91
2023-02-13T16:52:19.078Z,-0.92
2023-02-13T16:54:49.941Z,-0.95
2023-02-13T16:57:34.326Z,-0.98
2023-02-13T17:00:05.491Z,-1.00
2023-02-13T17:02:38.543Z,-1.02
2023-02-13T17:05:09.930Z,-1.05
2023-02-13T17:07:48.499Z,-1.09
2023-02-13T17:10:31.594Z,-1.12
2023-02-13T17:13:02.762Z,-1.16
2023-02-13T17:15:31.965Z,-1.18
2023-02-13T17:18:04.456Z,-1.19
2023-02-13T17:20:34.612Z,-1.20
2023-02-13T17:23:05.526Z,-1.18
2023-02-13T17:25:37.790Z,-1.15
2023-02-13T17:28:17.811Z,-1.13
2023-02-13T17:30:46.340Z,-1.10
2023-02-13T17:33:28.028Z,-1.08
2023-02-13T17:35:57.632Z,-1.06
2023-02-13T17:38:26.192Z,-1.07
2023-02-13T17:40:55.103Z,-1.06
2023-02-13T17:43:25.535Z,-1.05
2023-02-13T17:45:54.487Z,-1.02
2023-02-13T17:48:24.314Z,-0.99
2023-02-13T17:50:53.317Z,-0.95
2023-02-13T17:53:25.237Z,-0.93
2023-02-13T17:55:56.960Z,-0.91
2023-02-13T17:58:25.720Z,-0.90
2023-02-13T18:00:54.517Z,-0.88
2023-02-13T18:03:23.347Z,-0.88
2023-02-13T18:05:54.036Z,-0.86
2023-02-13T18:08:22.582Z,-0.84
2023-02-13T18:10:53.193Z,-0.80
2023-02-13T18:13:22.228Z,-0.77
2023-02-13T18:15:51.092Z,-0.73
2023-02-13T18:18:21.159Z,-0.71
2023-02-13T18:20:55.806Z,-0.68
2023-02-13T18:23:26.575Z,-0.66
2023-02-13T18:25:57.924Z,-0.65
2023-02-13T18:28:28.320Z,-0.63
2023-02-13T18:30:57.829Z,-0.61
2023-02-13T18:33:26.724Z,-0.59
2023-02-13T18:36:00.601Z,-0.56
2023-02-13T18:38:29.391Z,-0.54
2023-02-13T18:40:58.793Z,-0.50
2023-02-13T18:43:27.737Z,-0.48
2023-02-13T18:45:57.243Z,-0.46
2023-02-13T18:48:31.590Z,-0.45
2023-02-13T18:51:01.446Z,-0.44
2023-02-13T18:53:30.152Z,-0.43
2023-02-13T18:56:01.585Z,-0.42
2023-02-13T18:58:31.226Z,-0.41
2023-02-13T19:01:07.001Z,-0.40
2023-02-13T19:03:37.175Z,-0.39
2023-02-13T19:06:08.280Z,-0.37
2023-02-13T19:08:37.027Z,-0.36
2023-02-13T19:11:07.919Z,-0.35
2023-02-13T19:13:37.104Z,-0.34
2023-02-13T19:16:09.069Z,-0.33
2023-02-13T19:18:39.754Z,-0.33
2023-02-13T19:21:08.418Z,-0.35
2023-02-13T19:23:40.159Z,-0.35
2023-02-13T19:26:11.094Z,-0.34
2023-02-13T19:28:40.473Z,-0.34
2023-02-13T19:31:16.587Z,-0.34
2023-02-13T19:33:45.667Z,-0.33
2023-02-13T19:36:19.828Z,-0.33
2023-02-13T19:38:48.906Z,-0.32
2023-02-13T19:41:17.839Z,-0.32
2023-02-13T19:43:51.081Z,-0.32
2023-02-13T19:46:24.070Z,-0.32
2023-02-13T19:48:52.997Z,-0.33
2023-02-13T19:51:24.471Z,-0.34
2023-02-13T19:53:57.845Z,-0.35
2023-02-13T19:56:27.460Z,-0.34
2023-02-13T19:58:56.112Z,-0.34
2023-02-13T20:01:26.708Z,-0.34
2023-02-13T20:03:55.806Z,-0.33
2023-02-13T20:06:28.479Z,-0.33
2023-02-13T20:09:01.858Z,-0.34
2023-02-13T20:11:30.854Z,-0.36
2023-02-13T20:14:04.263Z,-0.37
2023-02-13T20:16:35.699Z,-0.38
2023-02-13T20:19:11.735Z,-0.39
2023-02-13T20:21:41.806Z,-0.39
2023-02-13T20:24:10.596Z,-0.39
2023-02-13T20:26:39.832Z,-0.40
2023-02-13T20:29:09.871Z,-0.41
2023-02-13T20:31:41.606Z,-0.41
2023-02-13T20:34:10.785Z,-0.41
2023-02-13T20:36:39.405Z,-0.43
2023-02-13T20:39:09.250Z,-0.45
2023-02-13T20:41:37.947Z,-0.46
2023-02-13T20:44:08.483Z,-0.47
2023-02-13T20:46:38.590Z,-0.48
2023-02-13T20:49:07.240Z,-0.50
2023-02-13T20:51:38.043Z,-0.51
2023-02-13T20:54:06.547Z,-0.51
2023-02-13T20:56:36.519Z,-0.50
2023-02-13T20:59:05.690Z,-0.49
2023-02-13T21:01:40.670Z,-0.48
2023-02-13T21:04:11.461Z,-0.48
2023-02-13T21:06:40.405Z,-0.47
2023-02-13T21:09:10.153Z,-0.46
2023-02-13T21:11:43.091Z,-0.45
2023-02-13T21:14:12.027Z,-0.44
2023-02-13T21:16:41.465Z,-0.43
2023-02-13T21:19:16.414Z,-0.42
2023-02-13T21:21:45.566Z,-0.41
2023-02-13T21:24:19.511Z,-0.41
2023-02-13T21:26:50.651Z,-0.40
2023-02-13T21:29:20.473Z,-0.38
2023-02-13T21:31:49.217Z,-0.37
2023-02-13T21:34:17.938Z,-0.37
2023-02-13T21:36:48.811Z,-0.36
2023-02-13T21:39:17.424Z,-0.36
2023-02-13T21:41:46.356Z,-0.34
2023-02-13T21:44:15.701Z,-0.33
2023-02-13T21:46:45.452Z,-0.32
2023-02-13T21:49:16.681Z,-0.31
2023-02-13T21:51:45.769Z,-0.29
2023-02-13T21:54:34.175Z,-0.28
2023-02-13T21:57:02.769Z,-0.26
2023-02-13T21:59:33.265Z,-0.25
2023-02-13T22:02:02.980Z,-0.24
2023-02-13T22:04:31.838Z,-0.22
2023-02-13T22:07:00.349Z,-0.21
2023-02-13T22:09:30.164Z,-0.21
2023-02-13T22:11:58.597Z,-0.21
2023-02-13T22:14:27.993Z,-0.19
2023-02-13T22:16:57.354Z,-0.19
2023-02-13T22:19:26.596Z,-0.19
2023-02-13T22:21:55.173Z,-0.18
2023-02-13T22:24:23.945Z,-0.19
2023-02-13T22:26:52.570Z,-0.20
2023-02-13T22:29:23.365Z,-0.19
2023-02-13T22:31:52.272Z,-0.17
2023-02-13T22:34:20.951Z,-0.16
2023-02-13T22:36:49.507Z,-0.16
2023-02-13T22:39:18.223Z,-0.15
2023-02-13T22:41:47.105Z,-0.15
2023-02-13T22:44:15.997Z,-0.16
2023-02-13T22:46:45.590Z,-0.16
2023-02-13T22:49:14.170Z,-0.17
2023-02-13T22:51:43.222Z,-0.17
2023-02-13T22:54:11.947Z,-0.17
2023-02-13T22:56:40.417Z,-0.16
2023-02-13T22:59:09.358Z,-0.16
2023-02-13T23:01:38.584Z,-0.15
2023-02-13T23:04:07.357Z,-0.15
2023-02-13T23:06:36.069Z,-0.15
2023-02-13T23:09:04.613Z,-0.15
2023-02-13T23:11:52.563Z,-0.14
2023-02-13T23:14:25.649Z,-0.13
2023-02-13T23:17:13.178Z,-0.13
2023-02-13T23:19:41.711Z,-0.13
2023-02-13T23:22:12.711Z,-0.13
2023-02-13T23:24:41.181Z,-0.12
2023-02-13T23:27:09.682Z,-0.11
2023-02-13T23:29:38.136Z,-0.10
2023-02-13T23:32:07.124Z,-0.10
2023-02-13T23:34:36.963Z,-0.11
2023-02-13T23:37:05.611Z,-0.12
2023-02-13T23:39:34.074Z,-0.13
2023-02-13T23:42:02.886Z,-0.12
2023-02-13T23:44:31.944Z,-0.12
2023-02-13T23:47:00.631Z,-0.13
2023-02-13T23:49:29.306Z,-0.14
2023-02-13T23:51:57.899Z,-0.14
2023-02-13T23:54:26.685Z,-0.16
2023-02-13T23:56:55.781Z,-0.15
2023-02-13T23:59:24.864Z,-0.17
